K9MR Weather Reports


Display with metric or nautical units.
time (UTC)temp
F
wind
direction
speed
MPH
gust
MPH
rain 1hr
in
rain 24hr
in
rain mn
in
humidity
%
barometer
mb
20220627144518 67 293 1.0 2.0 0.01 0.39 0.39 99 989.0
20220627143518 67 270 1.0 2.0 0.02 0.39 0.39 99 988.9
20220627142519 66 273 1.0 3.0 0.02 0.39 0.39 100 988.9
20220627141518 65 280 1.0 3.0 0.02 0.39 0.39 100 988.7
20220627140519 64 246 2.0 3.0 0.04 0.39 0.39 100 988.7
20220627135519 64 259 1.0 2.0 0.17 0.38 0.38 100 988.8
20220627134522 64 263 1.0 2.0 0.16 0.38 0.38 100 988.7
20220627133520 64 261 1.0 3.0 0.16 0.37 0.37 100 988.8
20220627132520 64 258 2.0 3.0 0.15 0.37 0.37 100 988.8
20220627131517 63 267 1.0 2.0 0.19 0.37 0.37 100 988.9
20220627130517 63 292 1.0 4.0 0.19 0.35 0.35 100 988.8
20220627125517 63 232 1.0 2.0 0.06 0.22 0.22 100 988.9
20220627124517 63 264 1.0 2.0 0.08 0.22 0.22 100 988.9
20220627123518 63 271 1.0 2.0 0.11 0.22 0.22 100 988.8
20220627122518 62 265 1.0 2.0 0.12 0.22 0.22 100 988.9
20220627121515 62 251 2.0 3.0 0.13 0.17 0.17 100 988.9
20220627120515 62 259 1.0 2.0 0.13 0.16 0.16 100 989.0
20220627115515 62 298 1.0 2.0 0.14 0.15 0.15 99 988.6
20220627114519 62 249 1.0 2.0 0.13 0.14 0.14 99 988.7
20220627113518 62 261 1.0 2.0 0.11 0.11 0.11 99 988.8
20220627112519 63 245 1.0 2.0 0.09 0.09 0.09 97 988.8
20220627111519 63 284 0.0 1.0 0.04 0.04 0.04 94 988.8
20220627110519 64 261 2.0 3.0 0.02 0.02 0.02 91 988.8
20220627105520 65 258 2.0 3.0 0.01 0.01 0.01 83 988.7
20220627104519 66 252 2.0 3.0 0.00 0.00 0.00 81 988.7
20220627103520 66 257 1.0 3.0 0.00 0.00 0.00 79 988.7
20220627102518 66 263 1.0 5.0 0.00 0.00 0.00 79 988.7
20220627101520 66 233 1.0 2.0 0.00 0.00 0.00 78 988.9
20220627100520 66 264 1.0 4.0 0.00 0.00 0.00 77 988.9
20220627095520 66 259 1.0 3.0 0.00 0.00 0.00 77 988.9
20220627094517 66 296 2.0 4.0 0.00 0.00 0.00 76 989.0
20220627093518 66 289 1.0 3.0 0.00 0.00 0.00 76 989.1
20220627092521 66 288 2.0 7.0 0.00 0.00 0.00 75 989.2
20220627091522 66 274 2.0 4.0 0.00 0.00 0.00 75 989.1
20220627090518 66 278 2.0 5.0 0.00 0.00 0.00 75 989.3
20220627085520 66 257 1.0 3.0 0.00 0.00 0.00 75 989.4
20220627084519 67 244 1.0 2.0 0.00 0.00 0.00 75 989.5
20220627083518 67 256 1.0 3.0 0.00 0.00 0.00 74 989.6
20220627082520 67 286 2.0 3.0 0.00 0.00 0.00 72 989.5
20220627081519 68 234 1.0 3.0 0.00 0.00 0.00 72 989.4
20220627080519 68 294 1.0 3.0 0.00 0.00 0.00 70 989.7
20220627075519 68 279 1.0 3.0 0.00 0.00 0.00 71 989.7
20220627074520 69 313 2.0 5.0 0.00 0.00 0.00 69 989.8
20220627073517 69 299 2.0 4.0 0.00 0.00 0.00 69 989.9
20220627072520 69 324 2.0 6.0 0.00 0.00 0.00 68 990.0
20220627071520 68 307 2.0 5.0 0.00 0.00 0.00 69 990.3
20220627070520 69 296 1.0 3.0 0.00 0.00 0.00 70 990.5
20220627065518 69 295 2.0 7.0 0.00 0.00 0.00 70 990.5
20220627064517 69 319 1.0 3.0 0.00 0.00 0.00 70 990.6
20220627063518 69 266 2.0 3.0 0.00 0.00 0.00 71 990.7
20220627062521 69 262 1.0 3.0 0.00 0.00 0.00 72 990.8
20220627061521 70 243 1.0 4.0 0.00 0.00 0.00 71 991.0
20220627060519 70 283 1.0 2.0 0.00 0.00 0.00 71 991.1
20220627055519 70 248 1.0 3.0 0.00 0.00 0.00 72 991.2
20220627054519 71 261 2.0 5.0 0.00 0.00 0.00 72 991.3
20220627053519 71 244 1.0 3.0 0.00 0.00 0.00 73 991.4
20220627052519 71 245 1.0 3.0 0.00 0.00 0.00 73 991.4
20220627051519 71 250 1.0 3.0 0.00 0.00 0.00 73 991.4
20220627050520 72 254 1.0 3.0 0.00 0.00 0.00 73 991.5
20220627045520 72 278 2.0 4.0 0.00 0.00 0.00 73 991.4
20220627044520 72 278 3.0 5.0 0.00 0.00 0.00 72 991.5
20220627043517 72 265 2.0 4.0 0.00 0.00 0.00 73 991.5
20220627042520 72 268 2.0 4.0 0.00 0.00 0.00 73 991.6
20220627041520 73 268 2.0 4.0 0.00 0.00 0.00 73 991.6
20220627040520 73 254 2.0 4.0 0.00 0.00 0.00 72 991.6
20220627035518 73 223 1.0 3.0 0.00 0.00 0.00 71 991.8
20220627034518 73 270 2.0 3.0 0.00 0.00 0.00 71 991.9
20220627033518 74 298 2.0 5.0 0.00 0.00 0.00 71 992.1
20220627032521 74 290 1.0 3.0 0.00 0.00 0.00 70 992.1
20220627031518 74 257 1.0 2.0 0.00 0.00 0.00 71 992.1
20220627030518 74 264 1.0 3.0 0.00 0.00 0.00 71 992.2
20220627025519 74 286 2.0 7.0 0.00 0.00 0.00 71 992.3
20220627024519 73 259 2.0 5.0 0.00 0.00 0.00 73 992.3
20220627023519 73 267 1.0 5.0 0.00 0.00 0.00 75 992.3
20220627022519 73 234 1.0 3.0 0.00 0.00 0.00 76 992.3
20220627021519 73 248 1.0 3.0 0.00 0.00 0.00 76 992.3
20220627020520 73 254 1.0 2.0 0.00 0.00 0.00 76 992.3
20220627015520 74 257 1.0 2.0 0.00 0.00 0.00 73 992.3
20220627014520 74 243 0.0 2.0 0.00 0.00 0.00 72 992.3
20220627013520 74 258 0.0 2.0 0.00 0.00 0.00 71 992.2
20220627012520 75 216 0.0 2.0 0.00 0.00 0.00 71 992.0
20220627011520 75 241 0.0 1.0 0.00 0.00 0.00 69 991.9
20220627010518 75 237 0.0 2.0 0.00 0.00 0.00 70 991.8
20220627005518 76 229 0.0 1.0 0.00 0.00 0.00 69 991.8
20220627004518 76 258 0.0 1.0 0.00 0.00 0.00 66 991.9
20220627003521 77 247 0.0 1.0 0.00 0.00 0.00 66 991.8
20220627002519 78 241 0.0 2.0 0.00 0.00 0.00 65 991.7
20220627001519 78 267 1.0 3.0 0.00 0.00 0.00 64 991.7
20220627000519 78 242 0.0 2.0 0.00 0.00 0.00 64 991.8
20220626235519 79 217 0.0 2.0 0.00 0.00 0.00 66 992.0
20220626234519 80 278 0.0 2.0 0.00 0.00 0.00 63 992.0
20220626233519 81 298 1.0 2.0 0.00 0.00 0.00 61 991.8
20220626232517 81 305 0.0 3.0 0.00 0.00 0.00 60 991.8
20220626231517 81 286 0.0 3.0 0.00 0.00 0.00 59 991.9
20220626230520 82 52 1.0 4.0 0.00 0.00 0.00 59 991.8
20220626225520 82 255 1.0 2.0 0.00 0.00 0.00 57 991.7
20220626224517 82 289 1.0 3.0 0.00 0.00 0.00 56 991.7
20220626223521 83 320 2.0 4.0 0.00 0.00 0.00 54 991.6
20220626222521 83 17 2.0 7.0 0.00 0.00 0.00 53 991.6
20220626221521 83 320 1.0 2.0 0.00 0.00 0.00 53 991.6
20220626220518 84 284 1.0 5.0 0.00 0.00 0.00 51 991.7
20220626215518 84 283 1.0 3.0 0.00 0.00 0.00 50 991.7
20220626214519 85 282 2.0 6.0 0.00 0.00 0.00 50 991.7
20220626213519 86 332 1.0 3.0 0.00 0.00 0.00 49 991.8
20220626212522 87 316 1.0 5.0 0.00 0.00 0.00 47 991.9
20220626211519 87 326 2.0 6.0 0.00 0.00 0.00 47 992.1
20220626210519 87 310 1.0 4.0 0.00 0.00 0.00 47 992.1
20220626205519 88 48 2.0 6.0 0.00 0.00 0.00 46 992.1
20220626204519 88 26 2.0 6.0 0.00 0.00 0.00 45 992.1
20220626203517 88 352 2.0 5.0 0.00 0.00 0.00 45 992.2
20220626202520 87 318 2.0 5.0 0.00 0.00 0.00 45 992.3
20220626201520 89 332 2.0 7.0 0.00 0.00 0.00 44 992.4
20220626200520 89 329 2.0 7.0 0.00 0.00 0.00 43 992.4
20220626195520 89 334 2.0 7.0 0.00 0.00 0.00 43 992.4
20220626194518 88 331 2.0 5.0 0.00 0.00 0.00 44 992.6
20220626193517 88 325 2.0 5.0 0.00 0.00 0.00 42 992.8
20220626192518 89 321 1.0 4.0 0.00 0.00 0.00 42 992.9
20220626191521 90 4 2.0 5.0 0.00 0.00 0.00 40 993.0
20220626190518 90 0 2.0 6.0 0.00 0.00 0.00 38 993.1
20220626185518 90 309 2.0 5.0 0.00 0.00 0.00 39 993.1
20220626184518 90 2 2.0 6.0 0.00 0.00 0.00 39 993.3
20220626183519 90 346 2.0 3.0 0.00 0.00 0.00 38 993.4
20220626182519 90 265 2.0 7.0 0.00 0.00 0.00 41 993.6
20220626181519 90 321 2.0 4.0 0.00 0.00 0.00 43 993.8
20220626180519 90 129 2.0 4.0 0.00 0.00 0.00 42 994.0
20220626175519 90 347 2.0 5.0 0.00 0.00 0.00 42 994.1
20220626174520 90 13 2.0 5.0 0.00 0.00 0.00 43 994.2
20220626173520 89 335 2.0 6.0 0.00 0.00 0.00 45 994.4
20220626172517 89 357 2.0 4.0 0.00 0.00 0.00 45 994.5
20220626171520 89 335 2.0 6.0 0.00 0.00 0.00 44 994.6
20220626170521 89 352 2.0 4.0 0.00 0.00 0.00 45 994.8
20220626165520 88 198 2.0 5.0 0.00 0.00 0.00 46 995.0
20220626164517 88 233 2.0 5.0 0.00 0.00 0.00 45 995.1
20220626163518 87 60 1.0 4.0 0.00 0.00 0.00 50 995.3
20220626162518 86 24 2.0 6.0 0.00 0.00 0.00 51 995.4
20220626161521 86 329 2.0 5.0 0.00 0.00 0.00 50 995.6
20220626160519 87 43 3.0 6.0 0.00 0.00 0.00 50 995.6
20220626155519 87 316 1.0 5.0 0.00 0.00 0.00 51 995.7
20220626154518 86 106 1.0 6.0 0.00 0.00 0.00 51 995.9
20220626153523 86 312 2.0 4.0 0.00 0.00 0.00 50 996.0
20220626152519 85 78 1.0 4.0 0.00 0.00 0.00 53 996.1
20220626151519 84 323 1.0 3.0 0.00 0.00 0.00 56 996.2
20220626150519 84 8 2.0 4.0 0.00 0.00 0.00 53 996.4
20220626145519 85 283 1.0 5.0 0.00 0.00 0.00 53 996.5